Maxville, Canada
Current Conditions -  °F | °C
As of 12:53 AM on Thursday 23 Oct 2014 (Local Time) from KMSS Reporting Station
Scattered Clouds Scattered Clouds  
Wind Chill: 37°   Ceiling: Unl
Heat Index: 44°   Visibility: 10mi
Dew Point: 35°   Wind: 16mph
Humidity: 71%   Direction: 30°NNE
Pressure: 30.17"   Gusts: NA
Location:  45.28°N, 74.85°W
Report Text: KMSS 230453Z AUTO 03014KT 10SM SCT070 07/02 A3017 RMK AO2 SLP218 T00670017 401110067
Loading
Personal Weather Stations






























Interactive Weather Map
Tropical Storm Tracking
New forecast layout! Learn more

10-Day Weather Forecast

Advertisements
Track Severe Weather on mobile